Terminal Aerodrome Forecast
Issued by NWS Milwaukee/Sullivan, WI

Home | Current Version | Previous Version | Text Only | Print | Product List | Glossary On
Versions: 1 2 3 4 5 6 7 8 9 10 11 12 13 14 15 16 17 18 19 20 21 22 23 24 25 26 27 28 29 30 31 32 33 34 35 36 37 38 39 40 41 42 43 44 45 46
000
FTUS43 KMKX 191131
TAFMKE
TAF
KMKE 191131Z 1912/2018 10010G18KT P6SM SCT080 BKN150
     FM192000 07009KT P6SM OVC120
     FM192200 06009KT 6SM -SHRA OVC060
     FM200000 07009KT 6SM -SHRA SCT008 OVC035
      TEMPO 2000/2002 5SM -SHRA BKN008
     FM200200 04008KT 2SM SHRA BR OVC005
     FM200800 31005KT 2SM -RA OVC003
     FM201200 29009KT 4SM -RA BR OVC003
     FM201600 30012KT 6SM BR OVC015=

USA.gov is the U.S. government's official web portal to all federal, state and local government web resources and services.